createdAt,value
2019-04-28T00:02:01.210Z,9.17
2019-04-28T00:04:33.885Z,9.09
2019-04-28T00:07:05.793Z,9.12
2019-04-28T00:09:37.793Z,9.16
2019-04-28T00:12:11.482Z,9.27
2019-04-28T00:14:43.508Z,9.28
2019-04-28T00:17:15.539Z,9.37
2019-04-28T00:19:47.540Z,9.40
2019-04-28T00:22:25.537Z,9.57
2019-04-28T00:25:14.199Z,9.67
2019-04-28T00:27:45.393Z,9.89
2019-04-28T00:30:17.377Z,9.99
2019-04-28T00:32:49.513Z,10.13
2019-04-28T00:35:23.188Z,10.26
2019-04-28T00:37:55.258Z,10.38
2019-04-28T00:40:27.289Z,10.51
2019-04-28T00:42:58.581Z,10.58
2019-04-28T00:45:31.386Z,10.70
2019-04-28T00:48:03.778Z,10.72
2019-04-28T00:50:35.817Z,10.76
2019-04-28T00:53:07.229Z,10.85
2019-04-28T00:55:39.055Z,10.91
2019-04-28T00:58:11.137Z,10.98
2019-04-28T01:00:44.781Z,11.01
2019-04-28T01:03:16.880Z,10.98
2019-04-28T01:05:50.761Z,11.05
2019-04-28T01:08:22.628Z,11.06
2019-04-28T01:10:54.828Z,11.05
2019-04-28T01:13:26.969Z,11.10
2019-04-28T01:16:09.429Z,11.16
2019-04-28T01:18:50.278Z,11.19
2019-04-28T01:21:25.353Z,11.22
2019-04-28T01:23:57.538Z,11.21
2019-04-28T01:26:33.687Z,11.21
2019-04-28T01:29:09.579Z,11.22
2019-04-28T01:31:49.448Z,11.35
2019-04-28T01:34:22.454Z,11.26
2019-04-28T01:36:54.618Z,11.23
2019-04-28T01:39:26.693Z,11.30
2019-04-28T01:41:59.568Z,11.21
2019-04-28T01:44:35.875Z,11.03
2019-04-28T01:47:07.221Z,11.12
2019-04-28T01:49:40.567Z,10.95
2019-04-28T01:52:17.559Z,10.93
2019-04-28T01:54:50.484Z,10.94
2019-04-28T01:57:22.852Z,10.96
2019-04-28T01:59:54.332Z,10.81
2019-04-28T02:02:29.975Z,10.82
2019-04-28T02:05:03.722Z,10.93
2019-04-28T02:07:35.316Z,10.94
2019-04-28T02:10:06.952Z,10.92
2019-04-28T02:12:40.288Z,10.99
2019-04-28T02:15:12.452Z,11.01
2019-04-28T02:17:44.428Z,10.92
2019-04-28T02:20:17.926Z,10.79
2019-04-28T02:22:55.766Z,10.74
2019-04-28T02:25:29.809Z,10.69
2019-04-28T02:28:01.884Z,10.53
2019-04-28T02:30:45.322Z,10.35
2019-04-28T02:33:07.426Z,10.46
2019-04-28T02:35:41.828Z,10.31
2019-04-28T02:38:13.091Z,10.08
2019-04-28T02:40:45.097Z,10.00
2019-04-28T02:43:16.966Z,9.87
2019-04-28T02:45:52.944Z,9.90
2019-04-28T02:48:26.347Z,10.01
2019-04-28T02:51:06.729Z,10.20
2019-04-28T02:53:43.266Z,10.14
2019-04-28T02:56:15.221Z,10.22
2019-04-28T02:58:47.210Z,10.25
2019-04-28T03:01:26.056Z,10.41
2019-04-28T03:03:52.311Z,10.42
2019-04-28T03:06:24.177Z,10.46
2019-04-28T03:08:56.154Z,10.39
2019-04-28T03:11:28.100Z,10.39
2019-04-28T03:14:00.940Z,10.41
2019-04-28T03:16:32.447Z,10.35
2019-04-28T03:19:04.287Z,10.37
2019-04-28T03:21:36.277Z,10.39
2019-04-28T03:24:07.613Z,10.42
2019-04-28T03:27:04.168Z,10.41
2019-04-28T03:29:40.775Z,10.40
2019-04-28T03:32:32.606Z,10.37
2019-04-28T03:34:53.919Z,10.47
2019-04-28T03:37:24.981Z,10.46
2019-04-28T03:39:56.996Z,10.41
2019-04-28T03:42:31.175Z,10.43
2019-04-28T03:45:04.194Z,10.47
2019-04-28T03:47:36.136Z,10.29
2019-04-28T03:50:10.191Z,10.30
2019-04-28T03:52:41.675Z,10.18
2019-04-28T03:55:13.735Z,10.20
2019-04-28T03:57:45.865Z,10.20
2019-04-28T04:00:17.254Z,10.24
2019-04-28T04:02:50.755Z,10.30
2019-04-28T04:05:22.848Z,10.28
2019-04-28T04:07:54.829Z,10.45
2019-04-28T04:10:46.536Z,10.30
2019-04-28T04:13:43.316Z,10.14
2019-04-28T04:16:45.587Z,10.02
2019-04-28T04:19:20.175Z,10.10
2019-04-28T04:21:52.796Z,10.11
2019-04-28T04:24:25.070Z,10.15
2019-04-28T04:26:56.927Z,10.23
2019-04-28T04:29:30.953Z,10.28
2019-04-28T04:32:13.676Z,10.29
2019-04-28T04:34:35.575Z,10.37
2019-04-28T04:37:07.723Z,10.52
2019-04-28T04:39:40.677Z,10.68
2019-04-28T04:42:12.724Z,10.51
2019-04-28T04:44:44.643Z,10.44
2019-04-28T04:47:16.532Z,10.40
2019-04-28T04:49:50.447Z,10.35
2019-04-28T04:52:21.400Z,10.42
2019-04-28T04:54:53.356Z,10.42
2019-04-28T04:57:25.262Z,10.42
2019-04-28T04:59:56.555Z,10.57
2019-04-28T05:02:52.005Z,10.61
2019-04-28T05:05:25.279Z,10.57
2019-04-28T05:07:57.178Z,10.62
2019-04-28T05:10:30.310Z,10.69
2019-04-28T05:13:01.934Z,10.70
2019-04-28T05:15:33.942Z,10.70
2019-04-28T05:18:05.359Z,10.79
2019-04-28T05:20:37.145Z,10.79
2019-04-28T05:23:27.285Z,10.75
2019-04-28T05:26:03.354Z,10.73
2019-04-28T05:28:36.941Z,10.74
2019-04-28T05:31:06.494Z,10.89
2019-04-28T05:33:39.616Z,10.83
2019-04-28T05:36:12.316Z,10.86
2019-04-28T05:38:44.232Z,11.03
2019-04-28T05:41:16.194Z,11.27
2019-04-28T05:43:50.451Z,11.41
2019-04-28T05:46:22.329Z,11.56
2019-04-28T05:49:06.695Z,11.69
2019-04-28T05:51:40.296Z,11.67
2019-04-28T05:54:19.802Z,11.82
2019-04-28T05:57:10.695Z,11.92
2019-04-28T05:59:50.525Z,12.07
2019-04-28T06:02:30.666Z,12.00
2019-04-28T06:05:04.535Z,12.02
2019-04-28T06:07:45.042Z,12.05
2019-04-28T06:10:20.199Z,12.12
2019-04-28T06:12:51.601Z,12.11
2019-04-28T06:15:23.606Z,12.12
2019-04-28T06:17:54.893Z,11.98
2019-04-28T06:20:26.322Z,12.24
2019-04-28T06:22:58.562Z,12.37
2019-04-28T06:25:30.288Z,12.52
2019-04-28T06:28:03.805Z,12.65
2019-04-28T06:30:35.910Z,12.70
2019-04-28T06:33:08.498Z,12.77
2019-04-28T06:35:40.518Z,12.89
2019-04-28T06:38:12.418Z,12.92
2019-04-28T06:40:43.651Z,13.11
2019-04-28T06:43:15.418Z,13.24
2019-04-28T06:45:47.346Z,13.06
2019-04-28T06:48:19.275Z,13.23
2019-04-28T06:50:51.162Z,13.55
2019-04-28T06:53:22.525Z,13.65
2019-04-28T06:55:54.542Z,13.77
2019-04-28T06:58:26.686Z,13.71
2019-04-28T07:00:58.414Z,13.64
2019-04-28T07:03:29.606Z,13.56
2019-04-28T07:06:01.712Z,13.42
2019-04-28T07:08:33.973Z,13.63
2019-04-28T07:11:06.060Z,13.64
2019-04-28T07:13:38.165Z,13.77
2019-04-28T07:16:10.362Z,13.91
2019-04-28T07:18:41.682Z,13.84
2019-04-28T07:21:29.145Z,13.67
2019-04-28T07:24:02.792Z,13.68
2019-04-28T07:26:34.010Z,13.60
2019-04-28T07:29:05.505Z,13.36
2019-04-28T07:31:37.411Z,13.51
2019-04-28T07:34:09.456Z,13.62
2019-04-28T07:36:41.394Z,13.59
2019-04-28T07:39:13.425Z,13.52
2019-04-28T07:41:44.695Z,13.83
2019-04-28T07:44:15.999Z,14.59
2019-04-28T07:46:47.225Z,14.99
2019-04-28T07:49:20.166Z,14.78
2019-04-28T07:52:02.892Z,14.67
2019-04-28T07:54:35.057Z,14.85
2019-04-28T07:57:06.387Z,15.02
2019-04-28T07:59:38.259Z,15.10
2019-04-28T08:02:09.634Z,14.71
2019-04-28T08:04:41.483Z,14.20
2019-04-28T08:07:13.311Z,13.88
2019-04-28T08:09:45.359Z,13.70
2019-04-28T08:12:16.507Z,13.80
2019-04-28T08:14:48.467Z,13.93
2019-04-28T08:17:20.729Z,13.67
2019-04-28T08:19:52.858Z,13.31
2019-04-28T08:22:24.718Z,13.37
2019-04-28T08:24:56.569Z,13.39
2019-04-28T08:27:28.399Z,13.57
2019-04-28T08:30:03.326Z,13.72
2019-04-28T08:32:41.509Z,14.12
2019-04-28T08:35:12.946Z,14.88
2019-04-28T08:37:44.193Z,15.39
2019-04-28T08:40:15.540Z,16.01
2019-04-28T08:42:47.743Z,16.02
2019-04-28T08:45:19.811Z,15.81
2019-04-28T08:47:51.961Z,15.53
2019-04-28T08:50:23.333Z,15.65
2019-04-28T08:52:56.442Z,15.75
2019-04-28T08:55:28.561Z,15.83
2019-04-28T08:58:00.691Z,16.22
2019-04-28T09:00:33.191Z,15.99
2019-04-28T09:03:04.647Z,15.89
2019-04-28T09:05:36.605Z,16.11
2019-04-28T09:08:08.881Z,15.62
2019-04-28T09:10:40.821Z,15.15
2019-04-28T09:13:12.305Z,14.95
2019-04-28T09:15:44.218Z,14.77
2019-04-28T09:18:16.143Z,14.88
2019-04-28T09:20:48.029Z,15.09
2019-04-28T09:23:20.000Z,15.07
2019-04-28T09:25:52.033Z,14.96
2019-04-28T09:28:24.077Z,14.90
2019-04-28T12:32:41.507Z,18.41
2019-04-28T12:35:18.376Z,17.94
2019-04-28T12:37:49.336Z,18.43
2019-04-28T12:40:22.786Z,18.39
2019-04-28T12:42:58.869Z,18.14
2019-04-28T12:45:35.135Z,17.99
2019-04-28T12:48:03.807Z,17.79
2019-04-28T12:50:47.731Z,17.73
2019-04-28T12:53:21.037Z,17.47
2019-04-28T12:55:56.579Z,16.81
2019-04-28T12:58:31.931Z,16.16
2019-04-28T13:01:21.455Z,15.83
2019-04-28T13:04:21.019Z,15.54
2019-04-28T13:07:07.143Z,15.48
2019-04-28T13:09:40.843Z,15.52
2019-04-28T13:12:12.215Z,15.44
2019-04-28T13:14:58.864Z,15.32
2019-04-28T13:17:33.912Z,15.34
2019-04-28T13:20:07.388Z,15.63
2019-04-28T13:22:39.391Z,15.90
2019-04-28T13:25:15.683Z,16.32
2019-04-28T13:27:47.083Z,16.50
2019-04-28T13:30:29.628Z,16.54
2019-04-28T13:36:14.582Z,16.08
2019-04-28T13:42:31.947Z,16.08
2019-04-28T13:45:07.645Z,16.16
2019-04-28T13:47:40.370Z,16.70
2019-04-28T13:50:40.280Z,17.07
2019-04-28T13:53:12.549Z,17.05
2019-04-28T13:56:04.920Z,17.50
2019-04-28T13:58:41.824Z,17.57
2019-04-28T14:01:46.098Z,17.20
2019-04-28T14:04:39.555Z,17.10
2019-04-28T14:07:12.094Z,17.14
2019-04-28T14:09:43.511Z,16.95
2019-04-28T14:12:17.185Z,17.23
2019-04-28T14:14:49.482Z,17.12
2019-04-28T14:17:22.961Z,16.67
2019-04-28T14:19:55.391Z,16.66
2019-04-28T14:22:27.847Z,16.65
2019-04-28T14:25:03.139Z,16.34
2019-04-28T14:27:34.483Z,16.07
2019-04-28T14:30:09.385Z,15.81
2019-04-28T14:32:40.477Z,15.69
2019-04-28T14:35:12.883Z,15.55
2019-04-28T14:37:44.126Z,15.82
2019-04-28T14:40:16.981Z,16.07
2019-04-28T14:42:50.102Z,16.08
2019-04-28T14:45:21.396Z,16.20
2019-04-28T14:47:54.475Z,16.37
2019-04-28T14:50:26.557Z,16.34
2019-04-28T14:52:58.512Z,16.25
2019-04-28T14:55:29.685Z,16.54
2019-04-28T14:58:00.977Z,16.73
2019-04-28T15:00:38.669Z,16.82
2019-04-28T15:03:18.551Z,16.52
2019-04-28T15:06:09.282Z,16.32
2019-04-28T15:08:55.761Z,16.04
2019-04-28T15:11:57.385Z,16.09
2019-04-28T15:14:33.194Z,16.20
2019-04-28T15:17:08.577Z,16.49
2019-04-28T15:19:40.695Z,16.85
2019-04-28T15:22:12.582Z,16.80
2019-04-28T15:24:47.279Z,16.68
2019-04-28T15:27:18.513Z,16.33
2019-04-28T15:29:50.393Z,16.41
2019-04-28T15:32:24.126Z,16.83
2019-04-28T15:34:55.957Z,16.50
2019-04-28T15:37:27.432Z,16.32
2019-04-28T15:39:59.398Z,16.45
2019-04-28T15:42:32.262Z,16.42
2019-04-28T15:45:07.433Z,16.21
2019-04-28T15:47:39.686Z,16.26
2019-04-28T15:50:12.114Z,16.12
2019-04-28T15:52:43.546Z,15.96
2019-04-28T15:55:18.906Z,15.75
2019-04-28T15:57:50.299Z,15.61
2019-04-28T16:00:22.641Z,15.56
2019-04-28T16:02:55.985Z,15.36
2019-04-28T16:05:27.335Z,15.40
2019-04-28T16:07:59.450Z,15.39
2019-04-28T16:10:32.228Z,15.32
2019-04-28T16:13:06.421Z,15.29
2019-04-28T16:15:38.163Z,15.24
2019-04-28T16:18:21.574Z,15.18
2019-04-28T16:20:44.260Z,15.05
2019-04-28T16:23:16.545Z,14.78
2019-04-28T16:25:51.391Z,14.56
2019-04-28T16:28:22.785Z,14.36
2019-04-28T16:30:54.745Z,14.22
2019-04-28T16:33:26.738Z,14.15
2019-04-28T16:36:01.079Z,14.08
2019-04-28T16:38:33.339Z,14.07
2019-04-28T16:41:09.397Z,14.12
2019-04-28T16:43:47.190Z,14.35
2019-04-28T16:46:22.514Z,14.38
2019-04-28T16:48:55.379Z,14.28
2019-04-28T16:51:27.228Z,14.40
2019-04-28T16:54:01.414Z,14.58
2019-04-28T16:57:11.104Z,14.56
2019-04-28T17:00:07.917Z,14.58
2019-04-28T17:02:43.983Z,14.60
2019-04-28T17:05:17.127Z,14.48
2019-04-28T17:07:53.492Z,14.50
2019-04-28T17:10:37.875Z,14.42
2019-04-28T17:13:08.401Z,14.17
2019-04-28T17:15:43.131Z,14.14
2019-04-28T17:18:17.625Z,14.22
2019-04-28T17:20:48.845Z,14.07
2019-04-28T17:23:20.925Z,14.03
2019-04-28T17:25:52.831Z,14.08
2019-04-28T17:28:24.145Z,13.87
2019-04-28T17:31:00.335Z,13.74
2019-04-28T17:33:33.041Z,13.79
2019-04-28T17:36:16.659Z,13.69
2019-04-28T17:38:53.459Z,13.51
2019-04-28T17:41:33.361Z,13.45
2019-04-28T17:44:06.119Z,13.50
2019-04-28T17:46:39.825Z,13.43
2019-04-28T17:49:21.798Z,13.33
2019-04-28T17:51:53.905Z,13.31
2019-04-28T17:54:28.398Z,13.28
2019-04-28T17:57:06.386Z,13.18
2019-04-28T17:59:56.089Z,13.19
2019-04-28T18:02:46.881Z,13.11
2019-04-28T18:05:39.017Z,12.92
2019-04-28T18:08:20.822Z,12.74
2019-04-28T18:10:46.567Z,12.70
2019-04-28T18:13:27.780Z,12.62
2019-04-28T18:16:24.013Z,12.82
2019-04-28T18:19:05.830Z,12.54
2019-04-28T18:22:12.323Z,12.41
2019-04-28T18:33:26.536Z,12.03
2019-04-28T18:36:00.661Z,11.97
2019-04-28T18:38:40.257Z,11.88
2019-04-28T18:41:33.774Z,11.78
2019-04-28T18:44:19.006Z,11.82
2019-04-28T18:46:51.157Z,11.79
2019-04-28T18:49:22.638Z,11.76
2019-04-28T18:51:54.519Z,11.88
2019-04-28T18:54:28.464Z,11.92
2019-04-28T18:57:03.476Z,11.92
2019-04-28T18:59:37.581Z,11.87
2019-04-28T19:02:26.040Z,11.83
2019-04-28T19:05:10.536Z,11.78
2019-04-28T19:08:04.485Z,11.78
2019-04-28T19:11:17.695Z,11.70
2019-04-28T19:14:03.639Z,11.63
2019-04-28T19:20:15.949Z,11.31
2019-04-28T19:22:48.150Z,11.29
2019-04-28T19:25:30.802Z,11.26
2019-04-28T19:28:12.902Z,11.18
2019-04-28T19:30:49.540Z,11.20
2019-04-28T19:34:15.422Z,11.15
2019-04-28T19:36:56.361Z,11.03
2019-04-28T19:42:33.628Z,10.92
2019-04-28T19:45:07.855Z,10.94
2019-04-28T19:48:02.771Z,10.91
2019-04-28T19:51:31.058Z,10.87
2019-04-28T19:54:04.372Z,10.80
2019-04-28T19:56:49.010Z,10.74
2019-04-28T19:59:27.639Z,10.70
2019-04-28T20:02:04.534Z,10.72
2019-04-28T20:04:41.724Z,10.66
2019-04-28T20:07:15.421Z,10.61
2019-04-28T20:09:54.352Z,10.56
2019-04-28T20:12:25.977Z,10.55
2019-04-28T20:15:01.044Z,10.51
2019-04-28T20:17:37.225Z,10.53
2019-04-28T20:20:19.212Z,10.59
2019-04-28T20:22:52.526Z,10.58
2019-04-28T20:25:26.580Z,10.67
2019-04-28T20:27:58.337Z,10.64
2019-04-28T20:30:33.487Z,10.71
2019-04-28T20:33:08.312Z,10.76
2019-04-28T20:35:48.683Z,10.75
2019-04-28T20:38:46.368Z,10.68
2019-04-28T20:41:33.799Z,10.64
2019-04-28T20:44:09.435Z,10.59
2019-04-28T20:46:45.095Z,10.55
2019-04-28T20:49:20.577Z,10.52
2019-04-28T20:51:54.411Z,10.49
2019-04-28T20:54:26.422Z,10.56
2019-04-28T20:56:58.123Z,10.55
2019-04-28T20:59:30.532Z,10.48
2019-04-28T21:02:02.992Z,10.43
2019-04-28T21:04:35.374Z,10.43
2019-04-28T21:07:07.217Z,10.48
2019-04-28T21:09:39.485Z,10.50
2019-04-28T21:12:11.106Z,10.23
2019-04-28T21:14:42.804Z,10.60
2019-04-28T21:17:15.383Z,10.57
2019-04-28T21:19:47.551Z,10.64
2019-04-28T21:22:19.802Z,10.73
2019-04-28T21:24:51.365Z,10.69
2019-04-28T21:27:22.688Z,10.71
2019-04-28T21:29:54.355Z,10.79
2019-04-28T21:32:28.357Z,10.73
2019-04-28T21:34:59.807Z,10.69
2019-04-28T21:37:31.195Z,10.75
2019-04-28T21:40:02.512Z,10.70
2019-04-28T21:43:04.464Z,10.70
2019-04-28T21:46:13.506Z,10.71
2019-04-28T21:48:53.045Z,10.68
2019-04-28T21:51:24.311Z,10.56
2019-04-28T21:53:56.332Z,10.51
2019-04-28T21:56:28.676Z,10.50
2019-04-28T21:59:01.363Z,10.47
2019-04-28T22:01:32.715Z,10.50
2019-04-28T22:04:05.213Z,10.64
2019-04-28T22:06:48.931Z,10.65
2019-04-28T22:09:20.643Z,10.75
2019-04-28T22:11:52.437Z,10.70
2019-04-28T22:14:27.827Z,10.76
2019-04-28T22:17:00.915Z,10.74
2019-04-28T22:19:32.458Z,10.76
2019-04-28T22:22:05.859Z,10.85
2019-04-28T22:25:18.351Z,10.87
2019-04-28T22:27:50.396Z,10.78
2019-04-28T22:30:21.806Z,10.78
2019-04-28T22:32:55.611Z,10.80
2019-04-28T22:35:27.062Z,10.76
2019-04-28T22:37:59.375Z,10.82
2019-04-28T22:40:31.840Z,10.92
2019-04-28T22:43:03.395Z,10.89
2019-04-28T22:45:35.555Z,10.81
2019-04-28T22:48:08.865Z,10.79
2019-04-28T22:50:45.413Z,10.79
2019-04-28T22:53:20.051Z,10.80
2019-04-28T22:56:02.316Z,10.83
2019-04-28T22:58:50.223Z,10.82
2019-04-28T23:01:34.149Z,10.87
2019-04-28T23:04:28.770Z,10.82
2019-04-28T23:07:01.350Z,10.83
2019-04-28T23:09:34.008Z,10.90
2019-04-28T23:12:08.349Z,10.81
2019-04-28T23:14:39.843Z,10.79
2019-04-28T23:17:14.910Z,10.82
2019-04-28T23:19:46.510Z,10.83
2019-04-28T23:22:27.777Z,10.72
2019-04-28T23:25:00.129Z,10.70
2019-04-28T23:27:32.646Z,10.73
2019-04-28T23:30:05.158Z,10.75
2019-04-28T23:32:37.910Z,10.75
2019-04-28T23:35:10.832Z,10.81
2019-04-28T23:37:43.141Z,10.73
2019-04-28T23:40:16.879Z,10.76
2019-04-28T23:42:53.938Z,10.81
2019-04-28T23:45:26.238Z,10.86
2019-04-28T23:48:03.656Z,10.89
2019-04-28T23:50:45.705Z,10.86
2019-04-28T23:53:23.462Z,10.76
2019-04-28T23:55:54.853Z,10.75
2019-04-28T23:58:27.398Z,10.75
